createdAt,value
2022-12-01T00:01:33.225Z,4.70
2022-12-01T00:04:00.243Z,4.70
2022-12-01T00:06:27.933Z,4.72
2022-12-01T00:09:19.731Z,4.73
2022-12-01T00:11:48.365Z,4.75
2022-12-01T00:14:16.463Z,4.78
2022-12-01T00:16:44.733Z,4.76
2022-12-01T00:19:11.738Z,4.75
2022-12-01T00:21:38.884Z,4.76
2022-12-01T00:24:07.416Z,4.77
2022-12-01T00:26:34.554Z,4.78
2022-12-01T00:29:01.375Z,4.78
2022-12-01T00:31:28.782Z,4.79
2022-12-01T00:33:56.167Z,4.81
2022-12-01T00:36:24.129Z,4.79
2022-12-01T00:39:01.055Z,4.77
2022-12-01T00:41:32.117Z,4.74
2022-12-01T00:43:58.889Z,4.75
2022-12-01T00:46:26.115Z,4.77
2022-12-01T00:48:53.050Z,4.78
2022-12-01T00:51:20.274Z,4.79
2022-12-01T00:53:47.673Z,4.80
2022-12-01T00:56:15.174Z,4.79
2022-12-01T00:58:42.817Z,4.78
2022-12-01T01:01:10.380Z,4.76
2022-12-01T01:03:40.641Z,4.72
2022-12-01T01:06:16.199Z,4.70
2022-12-01T01:08:47.337Z,4.68
2022-12-01T01:11:14.552Z,4.66
2022-12-01T01:13:41.393Z,4.65
2022-12-01T01:16:18.405Z,4.64
2022-12-01T01:18:47.384Z,4.65
2022-12-01T01:21:18.591Z,4.64
2022-12-01T01:23:46.002Z,4.65
2022-12-01T01:26:22.659Z,4.64
2022-12-01T01:28:51.460Z,4.63
2022-12-01T01:31:24.580Z,4.63
2022-12-01T01:33:53.985Z,4.61
2022-12-01T01:36:23.368Z,4.61
2022-12-01T01:38:54.456Z,4.61
2022-12-01T01:41:24.181Z,4.59
2022-12-01T01:44:02.950Z,4.58
2022-12-01T01:46:37.030Z,4.58
2022-12-01T01:49:19.613Z,4.57
2022-12-01T01:51:56.375Z,4.55
2022-12-01T01:54:34.110Z,4.54
2022-12-01T01:57:08.041Z,4.54
2022-12-01T01:59:50.732Z,4.51
2022-12-01T02:02:22.185Z,4.50
2022-12-01T02:05:01.399Z,4.51
2022-12-01T02:07:34.597Z,4.51
2022-12-01T02:10:01.912Z,4.50
2022-12-01T02:12:53.793Z,4.48
2022-12-01T02:16:20.684Z,4.44
2022-12-01T02:19:24.761Z,4.42
2022-12-01T02:22:48.208Z,4.41
2022-12-01T02:25:48.911Z,4.40
2022-12-01T02:28:53.182Z,4.40
2022-12-01T02:31:58.828Z,4.41
2022-12-01T02:34:51.699Z,4.42
2022-12-01T02:37:41.437Z,4.38
2022-12-01T02:41:10.470Z,4.38
2022-12-01T02:44:12.528Z,4.32
2022-12-01T02:47:14.619Z,4.31
2022-12-01T02:49:51.992Z,4.34
2022-12-01T02:52:29.029Z,4.31
2022-12-01T02:54:57.483Z,4.28
2022-12-01T02:57:25.253Z,4.26
2022-12-01T03:00:01.308Z,4.24
2022-12-01T03:02:42.893Z,4.25
2022-12-01T03:05:20.868Z,4.26
2022-12-01T03:08:13.930Z,4.24
2022-12-01T03:10:56.039Z,4.23
2022-12-01T03:13:56.748Z,4.22
2022-12-01T03:16:47.958Z,4.22
2022-12-01T03:19:37.873Z,4.25
2022-12-01T03:22:15.166Z,4.22
2022-12-01T03:24:48.441Z,4.19
2022-12-01T03:27:27.091Z,4.18
2022-12-01T03:30:01.742Z,4.16
2022-12-01T03:32:47.473Z,4.17
2022-12-01T03:35:51.770Z,4.17
2022-12-01T03:38:30.903Z,4.20
2022-12-01T03:41:10.588Z,4.21
2022-12-01T03:43:52.206Z,4.18
2022-12-01T03:47:03.471Z,4.17
2022-12-01T03:49:36.407Z,4.19
2022-12-01T03:52:52.337Z,4.16
2022-12-01T03:55:31.606Z,4.15
2022-12-01T03:58:41.091Z,4.12
2022-12-01T04:01:13.347Z,4.10
2022-12-01T04:03:45.423Z,4.10
2022-12-01T04:06:12.585Z,4.07
2022-12-01T04:08:39.890Z,4.07
2022-12-01T04:11:32.372Z,4.09
2022-12-01T04:13:59.959Z,4.08
2022-12-01T04:16:27.247Z,4.06
2022-12-01T04:18:54.145Z,4.01
2022-12-01T04:21:21.284Z,4.00
2022-12-01T04:24:00.873Z,3.99
2022-12-01T04:26:45.603Z,3.98
2022-12-01T04:29:21.816Z,3.98
2022-12-01T04:31:49.071Z,3.97
2022-12-01T04:34:16.015Z,3.95
2022-12-01T04:36:43.231Z,3.92
2022-12-01T04:39:10.589Z,3.88
2022-12-01T04:41:37.971Z,3.87
2022-12-01T04:44:05.645Z,3.85
2022-12-01T04:46:33.124Z,3.84
2022-12-01T04:49:00.532Z,3.83
2022-12-01T04:51:31.604Z,3.83
2022-12-01T04:53:59.358Z,3.83
2022-12-01T04:56:36.598Z,3.82
2022-12-01T04:59:03.805Z,3.80
2022-12-01T05:01:30.987Z,3.80
2022-12-01T05:03:58.124Z,3.82
2022-12-01T05:06:29.863Z,3.82
2022-12-01T05:12:35.486Z,3.78
2022-12-01T05:15:03.049Z,3.77
2022-12-01T05:17:36.745Z,3.74
2022-12-01T05:20:44.539Z,3.72
2022-12-01T05:23:16.981Z,3.67
2022-12-01T05:25:54.435Z,3.69
2022-12-01T05:28:24.933Z,3.67
2022-12-01T05:31:03.411Z,3.64
2022-12-01T05:33:32.212Z,3.63
2022-12-01T05:36:08.912Z,3.64
2022-12-01T05:38:36.065Z,3.67
2022-12-01T05:41:03.407Z,3.67
2022-12-01T05:43:30.736Z,3.67
2022-12-01T05:45:58.747Z,3.63
2022-12-01T05:48:26.034Z,3.60
2022-12-01T05:50:53.063Z,3.62
2022-12-01T05:53:20.865Z,3.62
2022-12-01T05:56:02.675Z,3.62
2022-12-01T05:58:29.793Z,3.65
2022-12-01T06:00:56.951Z,3.65
2022-12-01T06:03:59.587Z,3.70
2022-12-01T06:06:29.891Z,3.70
2022-12-01T06:08:56.969Z,3.72
2022-12-01T06:11:23.902Z,3.73
2022-12-01T06:13:51.024Z,3.74
2022-12-01T06:16:17.936Z,3.73
2022-12-01T06:18:45.305Z,3.72
2022-12-01T06:21:12.615Z,3.76
2022-12-01T06:23:39.970Z,3.73
2022-12-01T06:26:07.532Z,3.74
2022-12-01T06:28:37.664Z,3.76
2022-12-01T06:31:04.676Z,3.76
2022-12-01T06:33:32.354Z,3.75
2022-12-01T06:36:01.448Z,3.76
2022-12-01T06:38:38.660Z,3.77
2022-12-01T06:41:06.275Z,3.76
2022-12-01T06:43:38.807Z,3.77
2022-12-01T06:46:12.972Z,3.78
2022-12-01T06:48:40.419Z,3.80
2022-12-01T06:51:07.332Z,3.81
2022-12-01T06:53:34.743Z,3.82
2022-12-01T06:56:06.184Z,3.83
2022-12-01T06:58:42.556Z,3.87
2022-12-01T07:01:13.042Z,3.89
2022-12-01T07:03:40.954Z,3.91
2022-12-01T07:06:09.451Z,3.91
2022-12-01T07:08:37.737Z,3.92
2022-12-01T07:11:16.343Z,3.94
2022-12-01T07:13:52.135Z,3.92
2022-12-01T07:16:22.637Z,3.92
2022-12-01T07:19:28.922Z,3.94
2022-12-01T07:21:55.772Z,3.93
2022-12-01T07:24:23.281Z,3.91
2022-12-01T07:26:50.656Z,3.91
2022-12-01T07:29:18.608Z,3.89
2022-12-01T07:31:45.451Z,3.89
2022-12-01T07:34:15.782Z,3.84
2022-12-01T07:36:42.611Z,3.85
2022-12-01T07:39:09.788Z,3.86
2022-12-01T07:41:36.936Z,3.87
2022-12-01T07:44:04.739Z,3.90
2022-12-01T07:46:32.378Z,3.90
2022-12-01T07:49:00.398Z,3.90
2022-12-01T07:51:29.115Z,3.89
2022-12-01T07:54:05.543Z,3.92
2022-12-01T07:56:35.651Z,3.94
2022-12-01T07:59:03.326Z,3.96
2022-12-01T08:02:06.714Z,3.98
2022-12-01T08:04:46.357Z,4.00
2022-12-01T08:07:13.200Z,4.04
2022-12-01T08:09:51.927Z,4.05
2022-12-01T08:12:52.401Z,4.06
2022-12-01T08:15:39.130Z,4.03
2022-12-01T08:18:06.050Z,4.02
2022-12-01T08:20:58.806Z,4.01
2022-12-01T08:24:01.087Z,4.01
2022-12-01T08:26:55.719Z,4.03
2022-12-01T08:29:57.773Z,4.07
2022-12-01T08:32:24.968Z,4.13
2022-12-01T08:34:53.503Z,4.12
2022-12-01T08:37:21.195Z,4.13
2022-12-01T08:39:48.190Z,4.11
2022-12-01T08:42:29.554Z,4.11
2022-12-01T08:44:56.566Z,4.13
2022-12-01T08:47:23.707Z,4.13
2022-12-01T08:49:50.982Z,4.13
2022-12-01T08:52:18.501Z,4.16
2022-12-01T08:55:32.418Z,4.18
2022-12-01T08:58:00.729Z,4.25
2022-12-01T09:00:27.901Z,4.26
2022-12-01T09:02:55.440Z,4.31
2022-12-01T09:05:59.361Z,4.33
2022-12-01T09:08:35.454Z,4.35
2022-12-01T09:14:10.068Z,4.37
2022-12-01T09:16:40.856Z,4.42
2022-12-01T09:19:08.754Z,4.50
2022-12-01T09:22:00.772Z,4.51
2022-12-01T09:24:49.773Z,4.64
2022-12-01T09:27:20.468Z,4.72
2022-12-01T09:29:47.552Z,4.82
2022-12-01T09:32:15.021Z,4.90
2022-12-01T09:35:23.243Z,4.97
2022-12-01T09:37:58.894Z,5.03
2022-12-01T09:40:57.420Z,5.06
2022-12-01T09:43:46.386Z,5.08
2022-12-01T09:46:34.009Z,5.09
2022-12-01T09:49:13.311Z,5.16
2022-12-01T09:52:20.189Z,5.17
2022-12-01T09:54:50.149Z,5.15
2022-12-01T09:57:40.449Z,5.19
2022-12-01T10:01:16.377Z,5.24
2022-12-01T10:04:38.795Z,5.36
2022-12-01T10:07:16.496Z,5.29
2022-12-01T10:09:55.303Z,5.30
2022-12-01T10:12:36.682Z,5.31
2022-12-01T10:15:37.576Z,5.27
2022-12-01T10:18:32.202Z,5.30
2022-12-01T10:21:11.362Z,5.27
2022-12-01T10:24:28.798Z,5.34
2022-12-01T10:27:44.234Z,5.35
2022-12-01T10:30:23.824Z,5.25
2022-12-01T10:33:30.429Z,5.20
2022-12-01T10:35:58.160Z,5.25
2022-12-01T10:38:36.903Z,5.24
2022-12-01T10:41:15.062Z,5.24
2022-12-01T10:43:54.113Z,5.22
2022-12-01T10:46:46.853Z,5.23
2022-12-01T10:49:20.365Z,5.29
2022-12-01T10:51:57.816Z,5.28
2022-12-01T10:54:45.025Z,5.32
2022-12-01T10:57:17.782Z,5.33
2022-12-01T10:59:58.133Z,5.33
2022-12-01T11:02:39.885Z,5.37
2022-12-01T11:05:25.803Z,5.36
2022-12-01T11:07:54.347Z,5.37
2022-12-01T11:10:37.046Z,5.36
2022-12-01T11:13:29.431Z,5.36
2022-12-01T11:17:00.272Z,5.41
2022-12-01T11:19:36.269Z,5.39
2022-12-01T11:22:29.159Z,5.36
2022-12-01T11:25:21.907Z,5.32
2022-12-01T11:28:01.940Z,5.35
2022-12-01T11:31:03.634Z,5.33
2022-12-01T11:33:45.229Z,5.40
2022-12-01T11:37:16.069Z,5.37
2022-12-01T11:41:24.680Z,5.40
2022-12-01T11:44:06.225Z,5.52
2022-12-01T11:47:23.358Z,5.53
2022-12-01T11:50:25.999Z,5.57
2022-12-01T11:54:31.148Z,5.63
2022-12-01T11:57:33.753Z,5.62
2022-12-01T12:00:17.420Z,5.69
2022-12-01T12:03:19.614Z,5.67
2022-12-01T12:06:32.284Z,5.67
2022-12-01T12:09:24.615Z,5.75
2022-12-01T12:12:13.489Z,5.81
2022-12-01T12:15:42.876Z,5.77
2022-12-01T12:18:43.260Z,5.76
2022-12-01T12:21:37.496Z,5.79
2022-12-01T12:24:36.951Z,5.84
2022-12-01T12:27:27.080Z,5.85
2022-12-01T12:30:24.858Z,5.89
2022-12-01T12:33:46.681Z,5.90
2022-12-01T12:36:51.869Z,5.86
2022-12-01T12:39:31.651Z,5.89
2022-12-01T12:41:58.895Z,5.89
2022-12-01T12:44:50.331Z,5.90
2022-12-01T12:47:51.276Z,5.89
2022-12-01T12:50:36.835Z,5.93
2022-12-01T12:53:21.924Z,5.94
2022-12-01T12:55:54.201Z,5.96
2022-12-01T12:58:58.355Z,5.96
2022-12-01T13:01:37.627Z,6.00
2022-12-01T13:04:26.233Z,5.97
2022-12-01T13:07:07.965Z,5.97
2022-12-01T13:09:47.825Z,5.96
2022-12-01T13:12:29.413Z,5.97
2022-12-01T13:15:18.538Z,5.87
2022-12-01T13:17:54.897Z,5.89
2022-12-01T13:20:28.867Z,5.85
2022-12-01T13:23:01.497Z,5.82
2022-12-01T13:25:41.130Z,5.80
2022-12-01T13:28:25.504Z,5.84
2022-12-01T13:31:20.766Z,5.82
2022-12-01T13:33:56.867Z,5.81
2022-12-01T13:39:27.044Z,5.81
2022-12-01T13:42:04.898Z,5.81
2022-12-01T13:44:42.464Z,5.81
2022-12-01T13:47:14.028Z,5.81
2022-12-01T13:49:45.445Z,5.74
2022-12-01T13:52:28.385Z,5.72
2022-12-01T13:55:07.540Z,5.74
2022-12-01T13:57:58.048Z,5.73
2022-12-01T14:00:35.320Z,5.70
2022-12-01T14:03:39.279Z,5.68
2022-12-01T14:06:21.274Z,5.68
2022-12-01T14:08:54.978Z,5.69
2022-12-01T14:11:28.831Z,5.65
2022-12-01T14:14:12.544Z,5.66
2022-12-01T14:17:03.484Z,5.68
2022-12-01T14:19:53.110Z,5.72
2022-12-01T14:22:39.435Z,5.73
2022-12-01T14:25:36.270Z,5.73
2022-12-01T14:28:15.592Z,5.75
2022-12-01T14:30:45.951Z,5.74
2022-12-01T14:34:18.922Z,5.78
2022-12-01T14:37:30.379Z,5.76
2022-12-01T14:40:36.272Z,5.75
2022-12-01T14:43:38.594Z,5.73
2022-12-01T14:46:18.631Z,5.70
2022-12-01T14:49:00.266Z,5.73
2022-12-01T14:51:50.400Z,5.69
2022-12-01T14:54:35.248Z,5.69
2022-12-01T14:57:22.785Z,5.66
2022-12-01T15:00:19.442Z,5.64
2022-12-01T15:03:09.528Z,5.57
2022-12-01T15:05:48.360Z,5.57
2022-12-01T15:08:41.935Z,5.56
2022-12-01T15:11:30.581Z,5.58
2022-12-01T15:13:58.361Z,5.60
2022-12-01T15:16:31.181Z,5.58
2022-12-01T15:19:32.532Z,5.62
2022-12-01T15:22:11.513Z,5.64
2022-12-01T15:24:39.535Z,5.64
2022-12-01T15:27:39.171Z,5.66
2022-12-01T15:30:16.803Z,5.66
2022-12-01T15:32:49.882Z,5.64
2022-12-01T15:35:23.775Z,5.60
2022-12-01T15:38:09.218Z,5.63
2022-12-01T15:41:20.720Z,5.60
2022-12-01T15:43:41.397Z,5.52
2022-12-01T15:46:35.329Z,5.54
2022-12-01T15:49:33.887Z,5.56
2022-12-01T15:52:10.890Z,5.56
2022-12-01T15:54:40.626Z,5.57
2022-12-01T15:57:25.781Z,5.58
2022-12-01T15:59:57.976Z,5.54
2022-12-01T16:02:34.519Z,5.49
2022-12-01T16:05:36.801Z,5.43
2022-12-01T16:08:30.785Z,5.39
2022-12-01T16:11:37.521Z,5.37
2022-12-01T16:14:27.637Z,5.34
2022-12-01T16:16:55.243Z,5.33
2022-12-01T16:19:33.425Z,5.35
2022-12-01T16:22:12.386Z,5.37
2022-12-01T16:25:04.067Z,5.35
2022-12-01T16:27:33.600Z,5.36
2022-12-01T16:30:14.179Z,5.34
2022-12-01T16:32:44.172Z,5.33
2022-12-01T16:35:21.480Z,5.33
2022-12-01T16:37:48.824Z,5.36
2022-12-01T16:40:16.924Z,5.37
2022-12-01T16:42:44.416Z,5.37
2022-12-01T16:45:15.313Z,5.40
2022-12-01T16:47:47.041Z,5.38
2022-12-01T16:50:17.717Z,5.39
2022-12-01T16:52:45.732Z,5.31
2022-12-01T16:55:22.562Z,5.31
2022-12-01T16:57:53.011Z,5.29
2022-12-01T17:00:21.976Z,5.30
2022-12-01T17:02:48.893Z,5.31
2022-12-01T17:05:16.810Z,5.29
2022-12-01T17:07:43.925Z,5.25
2022-12-01T17:10:12.257Z,5.28
2022-12-01T17:12:39.821Z,5.29
2022-12-01T17:15:07.741Z,5.23
2022-12-01T17:17:34.975Z,5.20
2022-12-01T17:20:05.557Z,5.16
2022-12-01T17:22:37.142Z,5.04
2022-12-01T17:25:07.081Z,5.03
2022-12-01T17:27:34.217Z,5.06
2022-12-01T17:30:04.376Z,4.98
2022-12-01T17:32:32.292Z,5.00
2022-12-01T17:35:00.152Z,5.03
2022-12-01T17:37:30.570Z,4.93
2022-12-01T17:40:00.085Z,4.96
2022-12-01T17:42:32.254Z,4.98
2022-12-01T17:45:00.057Z,4.94
2022-12-01T17:47:27.392Z,4.93
2022-12-01T17:49:54.719Z,4.90
2022-12-01T17:52:26.662Z,4.91
2022-12-01T17:55:00.592Z,4.94
2022-12-01T17:57:28.748Z,4.88
2022-12-01T17:59:56.372Z,4.89
2022-12-01T18:02:23.482Z,4.87
2022-12-01T18:04:51.555Z,4.87
2022-12-01T18:07:20.117Z,4.80
2022-12-01T18:09:47.310Z,4.79
2022-12-01T18:12:14.142Z,4.84
2022-12-01T18:14:41.530Z,4.78
2022-12-01T18:17:08.894Z,4.84
2022-12-01T18:19:36.630Z,4.80
2022-12-01T18:22:06.044Z,4.82
2022-12-01T18:24:33.301Z,4.83
2022-12-01T18:27:00.254Z,4.83
2022-12-01T18:29:28.766Z,4.71
2022-12-01T18:31:57.748Z,4.62
2022-12-01T18:34:32.982Z,4.61
2022-12-01T18:37:02.895Z,4.61
2022-12-01T18:39:30.137Z,4.59
2022-12-01T18:41:58.250Z,4.52
2022-12-01T18:44:25.931Z,4.55
2022-12-01T18:46:53.160Z,4.51
2022-12-01T18:49:20.505Z,4.57
2022-12-01T18:51:47.515Z,4.51
2022-12-01T18:54:15.911Z,4.55
2022-12-01T18:56:43.263Z,4.51
2022-12-01T18:59:13.791Z,4.48
2022-12-01T19:01:49.151Z,4.49
2022-12-01T19:04:17.371Z,4.46
2022-12-01T19:06:46.616Z,4.40
2022-12-01T19:09:20.149Z,4.33
2022-12-01T19:12:03.615Z,4.26
2022-12-01T19:14:31.563Z,4.09
2022-12-01T19:17:00.816Z,4.09
2022-12-01T19:19:29.952Z,4.04
2022-12-01T19:22:00.753Z,3.97
2022-12-01T19:24:37.012Z,3.88
2022-12-01T19:27:04.516Z,3.88
2022-12-01T19:29:43.536Z,3.92
2022-12-01T19:32:11.002Z,3.90
2022-12-01T19:34:38.202Z,3.92
2022-12-01T19:37:05.031Z,3.87
2022-12-01T19:39:32.450Z,3.84
2022-12-01T19:41:59.322Z,3.91
2022-12-01T19:44:26.699Z,3.83
2022-12-01T19:46:54.713Z,3.79
2022-12-01T19:49:21.861Z,3.75
2022-12-01T19:51:49.226Z,3.59
2022-12-01T19:54:19.753Z,3.58
2022-12-01T19:56:46.812Z,3.60
2022-12-01T19:59:15.272Z,3.67
2022-12-01T20:01:50.466Z,3.61
2022-12-01T20:04:18.848Z,3.52
2022-12-01T20:06:46.150Z,3.54
2022-12-01T20:09:14.412Z,3.60
2022-12-01T20:11:41.507Z,3.68
2022-12-01T20:14:10.031Z,3.68
2022-12-01T20:16:36.919Z,3.60
2022-12-01T20:19:05.811Z,3.56
2022-12-01T20:21:43.541Z,3.57
2022-12-01T20:24:22.022Z,3.68
2022-12-01T20:26:53.847Z,3.72
2022-12-01T20:29:29.115Z,3.70
2022-12-01T20:32:01.165Z,3.70
2022-12-01T20:34:38.084Z,3.64
2022-12-01T20:37:07.975Z,3.60
2022-12-01T20:39:37.963Z,3.56
2022-12-01T20:42:07.724Z,3.61
2022-12-01T20:44:39.228Z,3.60
2022-12-01T20:47:08.757Z,3.53
2022-12-01T20:49:36.914Z,3.55
2022-12-01T20:52:04.695Z,3.43
2022-12-01T20:54:32.472Z,3.51
2022-12-01T20:57:00.387Z,3.58
2022-12-01T20:59:28.997Z,3.56
2022-12-01T21:01:56.758Z,3.55
2022-12-01T21:04:25.093Z,3.56
2022-12-01T21:07:01.401Z,3.53
2022-12-01T21:09:28.882Z,3.54
2022-12-01T21:12:35.199Z,3.61
2022-12-01T21:15:24.973Z,3.55
2022-12-01T21:18:22.842Z,3.61
2022-12-01T21:21:10.886Z,3.64
2022-12-01T21:23:38.554Z,3.51
2022-12-01T21:26:16.640Z,3.46
2022-12-01T21:28:45.038Z,3.48
2022-12-01T21:31:15.234Z,3.45
2022-12-01T21:33:46.916Z,3.44
2022-12-01T21:36:23.207Z,3.44
2022-12-01T21:39:00.477Z,3.39
2022-12-01T21:41:30.289Z,3.33
2022-12-01T21:44:17.873Z,3.31
2022-12-01T21:46:46.339Z,3.40
2022-12-01T21:49:22.666Z,3.47
2022-12-01T21:51:55.303Z,3.54
2022-12-01T21:54:23.489Z,3.55
2022-12-01T21:57:00.860Z,3.54
2022-12-01T21:59:28.112Z,3.50
2022-12-01T22:01:57.504Z,3.54
2022-12-01T22:04:37.574Z,3.60
2022-12-01T22:07:05.270Z,3.62
2022-12-01T22:09:36.842Z,3.61
2022-12-01T22:12:10.790Z,3.62
2022-12-01T22:14:38.006Z,3.66
2022-12-01T22:17:09.362Z,3.66
2022-12-01T22:19:46.473Z,3.68
2022-12-01T22:22:22.780Z,3.64
2022-12-01T22:25:04.853Z,3.71
2022-12-01T22:27:42.681Z,3.68
2022-12-01T22:30:25.117Z,3.65
2022-12-01T22:33:39.890Z,3.71
2022-12-01T22:36:33.519Z,3.73
2022-12-01T22:39:01.528Z,3.70
2022-12-01T22:41:29.455Z,3.69
2022-12-01T22:44:03.519Z,3.64
2022-12-01T22:46:46.661Z,3.70
2022-12-01T22:49:26.150Z,3.68
2022-12-01T22:52:30.877Z,3.68
2022-12-01T22:55:00.457Z,3.64
2022-12-01T22:57:37.831Z,3.61
2022-12-01T23:00:21.684Z,3.65
2022-12-01T23:03:00.025Z,3.67
2022-12-01T23:05:41.049Z,3.59
2022-12-01T23:08:32.610Z,3.59
2022-12-01T23:10:59.754Z,3.63
2022-12-01T23:13:26.639Z,3.64
2022-12-01T23:15:54.287Z,3.68
2022-12-01T23:18:32.533Z,3.68
2022-12-01T23:21:01.772Z,3.72
2022-12-01T23:23:40.492Z,3.70
2022-12-01T23:26:09.007Z,3.65
2022-12-01T23:28:44.609Z,3.67
2022-12-01T23:31:13.856Z,3.67
2022-12-01T23:33:41.394Z,3.69
2022-12-01T23:36:28.913Z,3.75
2022-12-01T23:39:08.352Z,3.73
2022-12-01T23:41:48.633Z,3.67
2022-12-01T23:44:42.771Z,3.66
2022-12-01T23:47:27.814Z,3.65
2022-12-01T23:50:06.818Z,3.66
2022-12-01T23:52:36.994Z,3.72
2022-12-01T23:55:29.140Z,3.70
2022-12-01T23:58:17.950Z,3.71
